createdAt,value
2018-07-19T00:00:09.860Z,88.80
2018-07-19T00:02:41.299Z,88.50
2018-07-19T00:05:11.337Z,88.60
2018-07-19T00:07:43.229Z,88.90
2018-07-19T00:10:14.432Z,89.00
2018-07-19T00:12:48.797Z,89.00
2018-07-19T00:15:19.274Z,89.30
2018-07-19T00:17:48.160Z,89.30
2018-07-19T00:20:18.295Z,89.50
2018-07-19T00:22:47.918Z,89.50
2018-07-19T00:25:18.326Z,90.00
2018-07-19T00:27:49.492Z,90.00
2018-07-19T00:30:20.042Z,89.80
2018-07-19T00:32:50.828Z,90.10
2018-07-19T00:35:20.383Z,90.30
2018-07-19T00:37:54.242Z,90.40
2018-07-19T00:40:25.782Z,90.70
2018-07-19T00:42:55.846Z,90.60
2018-07-19T00:45:25.896Z,90.80
2018-07-19T00:47:55.942Z,91.00
2018-07-19T00:50:27.047Z,91.10
2018-07-19T00:53:01.905Z,90.90
2018-07-19T00:55:32.887Z,90.80
2018-07-19T00:58:02.928Z,90.80
2018-07-19T01:00:31.856Z,90.80
2018-07-19T01:03:02.829Z,90.90
2018-07-19T01:05:34.196Z,90.90
2018-07-19T01:08:04.696Z,90.90
2018-07-19T01:10:35.521Z,91.00
2018-07-19T01:13:06.184Z,90.90
2018-07-19T01:15:35.811Z,91.00
2018-07-19T01:18:05.464Z,91.10
2018-07-19T01:20:35.350Z,91.20
2018-07-19T01:23:05.072Z,91.10
2018-07-19T01:25:35.649Z,91.20
2018-07-19T01:28:07.511Z,91.30
2018-07-19T01:30:38.716Z,91.20
2018-07-19T01:33:09.665Z,91.30
2018-07-19T01:35:42.048Z,91.40
2018-07-19T01:38:13.773Z,91.50
2018-07-19T01:40:44.770Z,91.50
2018-07-19T01:43:15.619Z,91.40
2018-07-19T01:45:46.624Z,91.40
2018-07-19T01:48:16.620Z,91.50
2018-07-19T01:50:47.356Z,91.60
2018-07-19T01:53:16.902Z,91.30
2018-07-19T01:55:48.003Z,91.40
2018-07-19T01:58:17.964Z,91.40
2018-07-19T02:00:48.665Z,91.50
2018-07-19T02:03:19.658Z,91.50
2018-07-19T02:05:49.984Z,91.50
2018-07-19T02:08:18.974Z,91.60
2018-07-19T02:10:49.530Z,91.70
2018-07-19T02:13:19.982Z,91.60
2018-07-19T02:15:50.410Z,91.50
2018-07-19T02:18:19.850Z,91.70
2018-07-19T02:20:49.826Z,91.90
2018-07-19T02:23:20.002Z,91.80
2018-07-19T02:25:48.571Z,91.80
2018-07-19T02:28:17.903Z,91.90
2018-07-19T02:30:48.756Z,92.00
2018-07-19T02:33:18.811Z,91.90
2018-07-19T02:35:49.737Z,91.90
2018-07-19T02:38:21.592Z,92.00
2018-07-19T02:40:52.037Z,91.90
2018-07-19T02:43:22.955Z,92.00
2018-07-19T02:45:54.823Z,91.80
2018-07-19T02:48:24.928Z,91.80
2018-07-19T02:50:54.781Z,91.90
2018-07-19T02:53:24.024Z,92.00
2018-07-19T02:55:54.333Z,92.20
2018-07-19T02:58:23.844Z,92.00
2018-07-19T03:00:53.981Z,92.00
2018-07-19T03:03:23.096Z,91.90
2018-07-19T03:05:52.912Z,91.80
2018-07-19T03:08:22.664Z,91.80
2018-07-19T03:10:53.558Z,91.80
2018-07-19T03:13:23.008Z,91.80
2018-07-19T03:15:52.824Z,91.60
2018-07-19T03:18:22.784Z,91.50
2018-07-19T03:20:53.441Z,91.40
2018-07-19T03:23:25.180Z,91.40
2018-07-19T03:25:54.791Z,91.30
2018-07-19T03:28:24.867Z,91.10
2018-07-19T03:30:56.626Z,91.00
2018-07-19T03:33:26.737Z,91.10
2018-07-19T03:35:56.855Z,91.00
2018-07-19T03:38:26.420Z,90.90
2018-07-19T03:40:55.745Z,90.80
2018-07-19T03:43:24.931Z,90.60
2018-07-19T03:45:55.471Z,90.30
2018-07-19T03:48:26.492Z,90.10
2018-07-19T03:50:57.522Z,90.10
2018-07-19T03:53:28.975Z,90.10
2018-07-19T03:55:59.755Z,90.00
2018-07-19T03:58:30.770Z,89.60
2018-07-19T04:01:01.558Z,89.30
2018-07-19T04:03:31.660Z,89.20
2018-07-19T04:06:01.871Z,88.80
2018-07-19T04:08:33.386Z,88.50
2018-07-19T04:11:05.563Z,88.10
2018-07-19T04:13:36.065Z,87.80
2018-07-19T04:16:07.470Z,87.10
2018-07-19T04:18:37.576Z,87.10
2018-07-19T04:21:09.209Z,86.70
2018-07-19T04:23:40.748Z,86.00
2018-07-19T04:26:12.623Z,85.80
2018-07-19T04:28:43.042Z,84.00
2018-07-19T04:31:12.598Z,84.20
2018-07-19T04:33:43.765Z,81.20
2018-07-19T04:36:13.803Z,81.20
2018-07-19T04:38:47.714Z,79.70
2018-07-19T04:41:18.035Z,80.60
2018-07-19T04:43:51.458Z,79.40
2018-07-19T04:46:21.919Z,78.60
2018-07-19T04:48:51.474Z,78.10
2018-07-19T04:51:21.114Z,78.60
2018-07-19T04:53:50.733Z,77.60
2018-07-19T04:56:25.780Z,77.70
2018-07-19T04:58:56.203Z,76.10
2018-07-19T05:01:27.762Z,76.70
2018-07-19T05:03:58.479Z,75.50
2018-07-19T05:06:29.470Z,74.90
2018-07-19T05:09:00.437Z,75.10
2018-07-19T05:11:31.580Z,75.10
2018-07-19T05:14:02.422Z,74.70
2018-07-19T05:16:34.533Z,74.50
2018-07-19T05:19:06.223Z,73.80
2018-07-19T05:21:37.169Z,74.00
2018-07-19T05:24:08.464Z,73.70
2018-07-19T05:26:40.387Z,73.00
2018-07-19T05:29:11.295Z,73.00
2018-07-19T05:31:42.730Z,73.70
2018-07-19T05:34:13.692Z,73.40
2018-07-19T05:36:44.658Z,73.20
2018-07-19T05:39:14.494Z,73.20
2018-07-19T05:41:44.483Z,73.40
2018-07-19T05:44:15.578Z,73.10
2018-07-19T05:46:46.597Z,72.30
2018-07-19T05:49:16.668Z,72.00
2018-07-19T05:51:49.660Z,71.80
2018-07-19T05:54:20.227Z,72.20
2018-07-19T05:56:52.287Z,72.30
2018-07-19T05:59:22.725Z,72.10
2018-07-19T06:01:52.169Z,71.60
2018-07-19T06:04:23.401Z,71.80
2018-07-19T06:06:58.243Z,71.30
2018-07-19T06:09:30.298Z,71.20
2018-07-19T06:12:02.334Z,71.50
2018-07-19T06:14:34.175Z,71.20
2018-07-19T06:17:04.213Z,71.20
2018-07-19T06:19:35.578Z,70.30
2018-07-19T06:22:06.419Z,70.20
2018-07-19T06:24:37.495Z,69.70
2018-07-19T06:27:07.608Z,69.50
2018-07-19T06:29:37.597Z,69.00
2018-07-19T06:32:07.021Z,68.60
2018-07-19T06:34:38.240Z,67.60
2018-07-19T06:37:08.543Z,67.20
2018-07-19T06:39:38.575Z,68.20
2018-07-19T06:42:09.560Z,66.60
2018-07-19T06:44:39.215Z,66.10
2018-07-19T06:47:09.418Z,65.60
2018-07-19T06:49:41.448Z,66.00
2018-07-19T06:52:11.182Z,65.60
2018-07-19T06:54:40.444Z,65.50
2018-07-19T06:57:10.462Z,65.00
2018-07-19T06:59:41.976Z,65.10
2018-07-19T07:02:12.858Z,63.40
2018-07-19T07:04:42.571Z,63.10
2018-07-19T07:07:12.025Z,62.30
2018-07-19T07:09:42.084Z,62.60
2018-07-19T07:12:14.358Z,62.80
2018-07-19T07:14:45.078Z,62.40
2018-07-19T07:17:17.133Z,61.40
2018-07-19T07:19:48.267Z,61.90
2018-07-19T07:22:19.246Z,60.30
2018-07-19T07:24:49.439Z,59.60
2018-07-19T07:27:19.952Z,60.00
2018-07-19T07:29:50.280Z,59.50
2018-07-19T07:32:21.241Z,59.60
2018-07-19T07:34:51.737Z,59.60
2018-07-19T07:37:22.480Z,59.40
2018-07-19T07:39:51.475Z,58.70
2018-07-19T07:42:22.035Z,59.10
2018-07-19T07:44:53.936Z,58.50
2018-07-19T07:47:24.206Z,58.30
2018-07-19T07:49:56.128Z,58.70
2018-07-19T07:52:28.098Z,58.80
2018-07-19T07:54:59.593Z,59.30
2018-07-19T07:57:30.092Z,58.60
2018-07-19T08:00:01.139Z,57.40
2018-07-19T08:02:31.978Z,56.50
2018-07-19T08:05:03.250Z,57.00
2018-07-19T08:07:35.209Z,57.10
2018-07-19T08:10:06.313Z,57.30
2018-07-19T08:12:37.989Z,56.70
2018-07-19T08:15:08.377Z,55.20
2018-07-19T08:17:37.495Z,56.70
2018-07-19T08:20:06.818Z,55.80
2018-07-19T08:22:36.081Z,55.30
2018-07-19T08:25:06.634Z,54.20
2018-07-19T08:27:37.017Z,54.30
2018-07-19T08:30:07.319Z,53.50
2018-07-19T08:32:37.361Z,53.60
2018-07-19T08:35:07.181Z,53.10
2018-07-19T08:37:38.617Z,52.00
2018-07-19T08:40:08.201Z,52.90
2018-07-19T08:42:38.175Z,52.30
2018-07-19T08:45:12.248Z,53.30
2018-07-19T08:47:41.510Z,52.70
2018-07-19T08:50:11.943Z,51.70
2018-07-19T08:52:45.587Z,51.30
2018-07-19T08:55:15.467Z,50.00
2018-07-19T08:57:46.425Z,48.90
2018-07-19T09:00:16.837Z,50.00
2018-07-19T09:02:47.849Z,50.70
2018-07-19T09:05:19.150Z,50.00
2018-07-19T09:07:51.217Z,46.70
2018-07-19T09:10:21.267Z,46.70
2018-07-19T09:12:50.913Z,48.20
2018-07-19T09:15:20.386Z,48.90
2018-07-19T09:17:56.024Z,49.20
2018-07-19T09:20:26.993Z,48.10
2018-07-19T09:22:56.335Z,48.30
2018-07-19T09:25:34.942Z,47.70
2018-07-19T09:28:08.545Z,47.40
2018-07-19T09:30:39.263Z,47.60
2018-07-19T09:33:08.436Z,47.60
2018-07-19T09:35:38.237Z,45.20
2018-07-19T09:38:11.007Z,46.40
2018-07-19T09:40:42.036Z,46.70
2018-07-19T09:43:12.934Z,45.60
2018-07-19T09:45:44.094Z,44.80
2018-07-19T09:48:14.076Z,44.60
2018-07-19T09:50:45.797Z,46.70
2018-07-19T09:53:22.371Z,46.20
2018-07-19T09:55:54.853Z,46.00
2018-07-19T09:58:26.864Z,44.30
2018-07-19T10:01:06.322Z,44.20
2018-07-19T10:03:38.463Z,45.00
2018-07-19T10:06:09.093Z,44.80
2018-07-19T10:08:41.063Z,44.70
2018-07-19T10:11:11.661Z,44.30
2018-07-19T10:13:42.269Z,43.80
2018-07-19T10:16:13.661Z,44.20
2018-07-19T10:18:44.740Z,44.50
2018-07-19T10:21:16.659Z,43.90
2018-07-19T10:23:46.263Z,42.80
2018-07-19T10:26:18.623Z,43.80
2018-07-19T10:28:51.054Z,42.80
2018-07-19T10:31:22.984Z,42.50
2018-07-19T10:33:54.158Z,42.10
2018-07-19T10:36:24.221Z,45.90
2018-07-19T10:38:55.823Z,42.80
2018-07-19T10:41:26.248Z,42.40
2018-07-19T10:43:57.828Z,43.00
2018-07-19T10:46:28.714Z,40.30
2018-07-19T10:49:00.066Z,40.70
2018-07-19T10:51:29.894Z,41.10
2018-07-19T10:54:00.004Z,41.40
2018-07-19T10:56:30.034Z,41.20
2018-07-19T10:58:59.927Z,41.30
2018-07-19T11:01:30.694Z,41.30
2018-07-19T11:04:01.713Z,41.50
2018-07-19T11:06:32.880Z,44.70
2018-07-19T11:09:03.702Z,43.60
2018-07-19T11:11:33.977Z,43.50
2018-07-19T11:14:04.668Z,43.10
2018-07-19T11:16:36.573Z,43.20
2018-07-19T11:19:07.076Z,43.70
2018-07-19T11:21:38.051Z,42.40
2018-07-19T11:24:08.225Z,43.00
2018-07-19T11:26:42.137Z,42.50
2018-07-19T11:29:14.480Z,40.80
2018-07-19T11:31:49.075Z,43.30
2018-07-19T11:34:20.135Z,43.40
2018-07-19T11:36:51.967Z,43.30
2018-07-19T11:39:23.719Z,45.10
2018-07-19T11:41:55.852Z,45.40
2018-07-19T11:44:27.715Z,41.70
2018-07-19T11:46:59.856Z,43.40
2018-07-19T11:49:31.067Z,43.00
2018-07-19T11:52:02.732Z,43.80
2018-07-19T11:54:33.116Z,43.00
2018-07-19T11:57:03.345Z,42.90
2018-07-19T11:59:35.796Z,42.40
2018-07-19T12:02:07.868Z,43.80
2018-07-19T12:04:38.969Z,42.40
2018-07-19T12:07:10.020Z,42.40
2018-07-19T12:09:41.417Z,42.50
2018-07-19T12:12:13.518Z,43.30
2018-07-19T12:14:45.214Z,42.10
2018-07-19T12:17:16.227Z,41.90
2018-07-19T12:19:47.853Z,41.10
2018-07-19T12:22:17.734Z,40.30
2018-07-19T12:24:47.847Z,40.80
2018-07-19T12:27:19.547Z,40.90
2018-07-19T12:29:50.620Z,40.50
2018-07-19T12:32:20.865Z,40.40
2018-07-19T12:34:51.157Z,40.90
2018-07-19T12:37:21.419Z,40.30
2018-07-19T12:39:52.954Z,39.50
2018-07-19T12:42:24.580Z,40.10
2018-07-19T12:44:56.607Z,39.90
2018-07-19T12:47:28.378Z,39.80
2018-07-19T12:49:59.772Z,39.10
2018-07-19T12:52:31.851Z,39.00
2018-07-19T12:55:06.203Z,38.00
2018-07-19T12:57:36.024Z,38.30
2018-07-19T13:00:06.912Z,37.70
2018-07-19T13:02:38.516Z,37.70
2018-07-19T13:05:09.569Z,39.00
2018-07-19T13:07:41.687Z,37.80
2018-07-19T13:10:12.950Z,37.70
2018-07-19T13:12:44.579Z,37.50
2018-07-19T13:15:15.915Z,37.90
2018-07-19T13:17:48.446Z,40.20
2018-07-19T13:20:20.400Z,39.00
2018-07-19T13:22:51.819Z,39.80
2018-07-19T13:25:23.025Z,39.00
2018-07-19T13:27:56.337Z,38.50
2018-07-19T13:30:27.216Z,39.10
2018-07-19T13:32:58.291Z,38.40
2018-07-19T13:35:30.306Z,39.30
2018-07-19T13:38:02.447Z,39.20
2018-07-19T13:40:33.998Z,40.00
2018-07-19T13:43:04.825Z,39.50
2018-07-19T13:45:35.252Z,40.20
2018-07-19T13:48:05.431Z,41.60
2018-07-19T13:50:35.747Z,40.50
2018-07-19T13:53:30.752Z,40.30
2018-07-19T13:56:00.668Z,40.60
2018-07-19T13:58:29.843Z,41.70
2018-07-19T14:00:59.772Z,41.20
2018-07-19T14:03:31.399Z,41.00
2018-07-19T14:06:02.580Z,40.60
2018-07-19T14:08:33.083Z,41.90
2018-07-19T14:11:03.002Z,39.80
2018-07-19T14:13:34.727Z,41.10
2018-07-19T14:16:07.699Z,40.80
2018-07-19T14:18:38.673Z,41.30
2018-07-19T14:21:09.645Z,41.10
2018-07-19T14:23:39.632Z,41.30
2018-07-19T14:26:10.513Z,41.40
2018-07-19T14:28:46.425Z,42.10
2018-07-19T14:31:18.218Z,42.20
2018-07-19T14:33:49.241Z,42.20
2018-07-19T14:36:20.708Z,42.10
2018-07-19T14:38:51.468Z,42.10
2018-07-19T14:41:22.592Z,42.40
2018-07-19T14:43:52.454Z,41.60
2018-07-19T14:46:26.655Z,42.50
2018-07-19T14:49:03.741Z,42.50
2018-07-19T14:51:34.868Z,42.70
2018-07-19T14:54:05.657Z,42.10
2018-07-19T14:56:36.306Z,43.40
2018-07-19T14:59:07.621Z,42.80
2018-07-19T15:01:39.483Z,42.10
2018-07-19T15:04:11.707Z,41.90
2018-07-19T15:06:41.764Z,43.00
2018-07-19T15:09:11.923Z,41.90
2018-07-19T15:11:44.914Z,42.40
2018-07-19T15:14:15.747Z,42.80
2018-07-19T15:16:46.317Z,42.90
2018-07-19T15:19:19.656Z,42.90
2018-07-19T15:21:50.922Z,43.60
2018-07-19T15:24:21.700Z,42.20
2018-07-19T15:26:56.058Z,42.60
2018-07-19T15:29:29.135Z,43.90
2018-07-19T15:32:00.446Z,42.60
2018-07-19T15:34:32.049Z,43.10
2018-07-19T15:37:01.509Z,42.10
2018-07-19T15:39:31.481Z,41.80
2018-07-19T15:42:01.389Z,41.80
2018-07-19T15:44:33.127Z,42.00
2018-07-19T15:47:02.831Z,42.10
2018-07-19T15:49:33.296Z,40.80
2018-07-19T15:52:04.117Z,41.50
2018-07-19T15:54:33.719Z,40.90
2018-07-19T15:57:04.623Z,41.60
2018-07-19T15:59:35.575Z,41.60
2018-07-19T16:02:11.523Z,40.50
2018-07-19T16:04:43.051Z,40.60
2018-07-19T16:07:13.419Z,40.60
2018-07-19T16:09:43.560Z,40.50
2018-07-19T16:12:13.729Z,40.60
2018-07-19T16:14:50.309Z,39.30
2018-07-19T16:17:28.731Z,37.30
2018-07-19T16:20:05.453Z,36.30
2018-07-19T16:22:36.571Z,36.10
2018-07-19T16:25:07.546Z,34.70
2018-07-19T16:27:39.777Z,34.10
2018-07-19T16:30:11.504Z,32.40
2018-07-19T16:32:41.391Z,31.90
2018-07-19T16:35:14.488Z,31.30
2018-07-19T16:37:51.703Z,32.30
2018-07-19T16:40:24.194Z,31.90
2018-07-19T16:42:56.029Z,32.80
2018-07-19T16:45:27.204Z,32.70
2018-07-19T16:47:58.461Z,33.40
2018-07-19T16:50:30.256Z,33.80
2018-07-19T16:53:01.837Z,34.70
2018-07-19T16:55:31.660Z,34.30
2018-07-19T16:58:03.067Z,33.90
2018-07-19T17:00:34.743Z,34.20
2018-07-19T17:03:04.477Z,33.20
2018-07-19T17:05:34.519Z,33.30
2018-07-19T17:08:05.748Z,33.80
2018-07-19T17:10:35.631Z,34.30
2018-07-19T17:13:05.819Z,34.00
2018-07-19T17:15:36.164Z,34.00
2018-07-19T17:18:08.162Z,34.30
2018-07-19T17:20:39.568Z,33.30
2018-07-19T17:23:10.652Z,34.10
2018-07-19T17:25:41.044Z,33.80
2018-07-19T17:28:11.964Z,34.20
2018-07-19T17:30:42.270Z,34.20
2018-07-19T17:33:11.328Z,35.30
2018-07-19T17:35:42.115Z,35.50
2018-07-19T17:38:14.658Z,35.70
2018-07-19T17:40:45.659Z,36.70
2018-07-19T17:43:16.341Z,37.00
2018-07-19T17:45:45.489Z,38.60
2018-07-19T17:48:15.246Z,38.30
2018-07-19T17:50:46.202Z,37.80
2018-07-19T17:53:16.664Z,39.40
2018-07-19T17:55:48.253Z,39.60
2018-07-19T17:58:29.050Z,40.40
2018-07-19T18:01:01.036Z,42.00
2018-07-19T18:03:30.550Z,41.60
2018-07-19T18:06:00.933Z,42.50
2018-07-19T18:08:31.282Z,42.90
2018-07-19T18:11:01.397Z,44.00
2018-07-19T18:13:31.642Z,43.80
2018-07-19T18:16:02.260Z,44.40
2018-07-19T18:18:35.303Z,44.60
2018-07-19T18:21:05.124Z,45.60
2018-07-19T18:23:35.139Z,45.80
2018-07-19T18:26:05.033Z,47.20
2018-07-19T18:28:37.025Z,47.70
2018-07-19T18:31:08.533Z,47.80
2018-07-19T18:33:38.705Z,48.20
2018-07-19T18:36:08.854Z,49.00
2018-07-19T18:38:40.332Z,49.40
2018-07-19T18:41:10.280Z,49.80
2018-07-19T18:43:44.206Z,50.40
2018-07-19T18:46:15.867Z,51.40
2018-07-19T18:48:49.784Z,50.80
2018-07-19T18:51:19.736Z,52.00
2018-07-19T18:53:51.760Z,53.50
2018-07-19T18:56:22.298Z,52.20
2018-07-19T18:58:53.614Z,52.20
2018-07-19T19:01:24.547Z,53.40
2018-07-19T19:03:54.021Z,53.80
2018-07-19T19:06:24.706Z,54.60
2018-07-19T19:08:55.022Z,55.60
2018-07-19T19:14:37.446Z,55.30
2018-07-19T19:17:07.643Z,57.30
2018-07-19T19:19:37.817Z,57.20
2018-07-19T19:22:08.461Z,56.90
2018-07-19T19:24:39.799Z,58.80
2018-07-19T19:27:10.097Z,59.80
2018-07-19T19:29:41.610Z,58.50
2018-07-19T19:32:12.176Z,57.30
2018-07-19T19:34:42.254Z,58.20
2018-07-19T19:37:11.740Z,59.20
2018-07-19T19:39:43.519Z,60.90
2018-07-19T19:42:15.353Z,61.50
2018-07-19T19:44:46.489Z,61.50
2018-07-19T19:47:17.495Z,61.90
2018-07-19T19:49:48.142Z,62.60
2018-07-19T19:52:20.865Z,63.10
2018-07-19T19:54:51.501Z,63.70
2018-07-19T19:57:22.359Z,64.30
2018-07-19T19:59:53.335Z,65.00
2018-07-19T20:02:24.289Z,65.40
2018-07-19T20:04:56.396Z,65.70
2018-07-19T20:07:27.901Z,66.00
2018-07-19T20:09:57.560Z,65.20
2018-07-19T20:12:27.456Z,65.00
2018-07-19T20:14:57.113Z,64.70
2018-07-19T20:17:27.308Z,67.00
2018-07-19T20:19:56.609Z,68.30
2018-07-19T20:22:27.449Z,67.60
2018-07-19T20:24:57.839Z,66.80
2018-07-19T20:27:29.055Z,66.40
2018-07-19T20:30:00.566Z,66.60
2018-07-19T20:32:31.353Z,68.60
2018-07-19T20:35:02.873Z,69.10
2018-07-19T20:37:32.582Z,69.80
2018-07-19T20:40:02.213Z,69.90
2018-07-19T20:42:32.849Z,70.70
2018-07-19T20:45:03.197Z,70.70
2018-07-19T20:47:34.281Z,70.90
2018-07-19T20:50:04.663Z,72.00
2018-07-19T20:52:50.632Z,70.90
2018-07-19T20:55:22.937Z,70.20
2018-07-19T20:57:53.288Z,71.70
2018-07-19T21:00:24.431Z,72.30
2018-07-19T21:02:54.967Z,73.20
2018-07-19T21:05:26.744Z,73.30
2018-07-19T21:07:56.359Z,74.40
2018-07-19T21:10:28.879Z,72.00
2018-07-19T21:13:00.290Z,73.90
2018-07-19T21:15:30.810Z,74.10
2018-07-19T21:18:00.308Z,72.50
2018-07-19T21:20:32.399Z,72.70
2018-07-19T21:23:02.292Z,72.50
2018-07-19T21:25:32.202Z,72.80
2018-07-19T21:28:01.284Z,74.20
2018-07-19T21:30:31.274Z,75.20
2018-07-19T21:33:01.107Z,76.00
2018-07-19T21:35:30.461Z,76.80
2018-07-19T21:38:01.160Z,75.90
2018-07-19T21:40:32.766Z,76.80
2018-07-19T21:43:03.018Z,77.00
2018-07-19T21:45:32.431Z,75.00
2018-07-19T21:48:02.269Z,76.80
2018-07-19T21:50:32.666Z,77.40
2018-07-19T21:53:05.019Z,75.90
2018-07-19T21:55:35.911Z,76.00
2018-07-19T21:58:07.202Z,75.70
2018-07-19T22:00:41.116Z,75.60
2018-07-19T22:03:11.139Z,77.20
2018-07-19T22:05:41.271Z,78.40
2018-07-19T22:08:11.820Z,78.10
2018-07-19T22:10:41.890Z,76.80
2018-07-19T22:13:13.209Z,76.60
2018-07-19T22:15:45.288Z,76.90
2018-07-19T22:18:15.101Z,77.30
2018-07-19T22:20:44.180Z,79.30
2018-07-19T22:23:13.335Z,78.30
2018-07-19T22:25:44.200Z,77.90
2018-07-19T22:28:16.046Z,78.80
2018-07-19T22:30:47.814Z,78.30
2018-07-19T22:33:19.874Z,78.80
2018-07-19T22:35:50.892Z,79.90
2018-07-19T22:38:22.263Z,81.80
2018-07-19T22:40:53.744Z,79.90
2018-07-19T22:43:24.213Z,79.90
2018-07-19T22:45:55.300Z,79.90
2018-07-19T22:48:24.884Z,80.50
2018-07-19T22:50:55.213Z,81.10
2018-07-19T22:53:27.494Z,81.30
2018-07-19T22:55:58.830Z,81.20
2018-07-19T22:58:28.262Z,83.00
2018-07-19T23:00:58.593Z,82.40
2018-07-19T23:03:28.172Z,81.70
2018-07-19T23:05:57.940Z,83.00
2018-07-19T23:08:27.291Z,83.50
2018-07-19T23:10:57.689Z,83.70
2018-07-19T23:13:29.272Z,82.30
2018-07-19T23:15:58.962Z,83.30
2018-07-19T23:18:28.451Z,83.10
2018-07-19T23:20:59.374Z,83.00
2018-07-19T23:23:28.781Z,82.80
2018-07-19T23:25:59.003Z,82.80
2018-07-19T23:28:30.143Z,82.60
2018-07-19T23:31:00.206Z,82.80
2018-07-19T23:33:31.866Z,82.70
2018-07-19T23:36:10.599Z,83.80
2018-07-19T23:38:46.098Z,84.90
2018-07-19T23:41:20.730Z,84.00
2018-07-19T23:43:54.773Z,83.80
2018-07-19T23:46:35.228Z,84.00
2018-07-19T23:49:07.048Z,84.00
2018-07-19T23:51:39.194Z,85.90
2018-07-19T23:54:10.706Z,86.80
2018-07-19T23:56:40.116Z,85.00
2018-07-19T23:59:09.881Z,86.80
